Terminal Aerodrome Forecast
Issued by NWS

Home | Current Version | Previous Version | Text Only | Print | Product List | Glossary On
Versions: 1 2 3 4 5 6 7 8 9 10 11 12 13 14 15 16 17 18 19 20 21 22 23 24 25
000
FTUS46 KLOX 210042 AAA
TAFSBA
TAF AMD
KSBA 210042Z 2101/2124 11010KT 5SM -RA BR BKN012 OVC025
      TEMPO 2101/2103 BKN007 OVC012
     FM210800 11010KT 3SM RA BR BKN007 OVC012
     FM211300 09010KT 5SM -RA BR BKN012 OVC025
     FM211800 16005KT 6SM -SHRA BKN025 OVC040
     FM212100 24008KT P6SM SCT025 BKN040=

USA.gov is the U.S. government's official web portal to all federal, state and local government web resources and services.